createdAt,value
2022-10-14T00:01:20.091Z,16.30
2022-10-14T00:03:48.095Z,16.40
2022-10-14T00:06:22.018Z,16.30
2022-10-14T00:08:49.496Z,16.30
2022-10-14T00:11:20.496Z,16.30
2022-10-14T00:13:48.052Z,16.20
2022-10-14T00:16:23.981Z,16.20
2022-10-14T00:18:52.238Z,16.20
2022-10-14T00:21:19.957Z,16.20
2022-10-14T00:23:47.388Z,16.20
2022-10-14T00:26:21.376Z,16.20
2022-10-14T00:28:48.596Z,16.20
2022-10-14T00:31:16.335Z,16.30
2022-10-14T00:33:44.582Z,16.30
2022-10-14T00:36:14.073Z,16.20
2022-10-14T00:38:41.424Z,16.20
2022-10-14T00:41:11.369Z,16.10
2022-10-14T00:43:59.060Z,16.00
2022-10-14T00:46:29.160Z,16.00
2022-10-14T00:49:01.160Z,16.10
2022-10-14T00:51:28.442Z,16.10
2022-10-14T00:53:55.671Z,16.10
2022-10-14T00:56:26.321Z,16.10
2022-10-14T00:58:53.625Z,16.10
2022-10-14T01:01:20.460Z,16.10
2022-10-14T01:03:47.342Z,16.10
2022-10-14T01:06:14.452Z,16.10
2022-10-14T01:09:04.505Z,16.10
2022-10-14T01:11:53.690Z,16.10
2022-10-14T01:14:50.355Z,16.10
2022-10-14T01:17:41.377Z,16.10
2022-10-14T01:20:36.442Z,16.20
2022-10-14T01:23:45.012Z,16.20
2022-10-14T01:26:26.363Z,16.10
2022-10-14T01:29:22.929Z,16.00
2022-10-14T01:32:00.325Z,16.00
2022-10-14T01:34:34.678Z,16.00
2022-10-14T01:37:13.416Z,16.10
2022-10-14T01:39:49.818Z,16.10
2022-10-14T01:42:21.754Z,16.10
2022-10-14T01:44:54.965Z,16.00
2022-10-14T01:47:24.797Z,16.10
2022-10-14T01:50:01.891Z,16.10
2022-10-14T01:52:37.870Z,16.00
2022-10-14T01:55:09.236Z,16.00
2022-10-14T01:57:39.470Z,16.00
2022-10-14T02:00:07.166Z,16.00
2022-10-14T02:02:37.485Z,16.00
2022-10-14T02:05:11.522Z,16.00
2022-10-14T02:07:46.281Z,16.00
2022-10-14T02:10:45.326Z,16.00
2022-10-14T02:13:26.172Z,16.00
2022-10-14T02:16:17.641Z,16.00
2022-10-14T02:19:08.317Z,16.00
2022-10-14T02:21:44.281Z,16.00
2022-10-14T02:24:26.879Z,16.00
2022-10-14T02:26:57.392Z,16.00
2022-10-14T02:29:25.550Z,16.00
2022-10-14T02:31:53.918Z,16.00
2022-10-14T02:34:22.821Z,16.00
2022-10-14T02:36:50.680Z,16.00
2022-10-14T02:39:30.398Z,15.90
2022-10-14T02:41:57.492Z,16.00
2022-10-14T02:44:24.465Z,15.90
2022-10-14T02:46:51.294Z,15.90
2022-10-14T02:49:18.268Z,16.00
2022-10-14T02:51:44.990Z,15.90
2022-10-14T02:54:12.080Z,15.90
2022-10-14T02:56:38.876Z,15.90
2022-10-14T02:59:05.722Z,16.00
2022-10-14T03:01:37.300Z,16.00
2022-10-14T03:04:04.487Z,16.00
2022-10-14T03:06:31.321Z,16.00
2022-10-14T03:08:58.190Z,16.00
2022-10-14T03:11:25.431Z,16.00
2022-10-14T03:13:52.194Z,16.00
2022-10-14T03:16:18.973Z,16.00
2022-10-14T03:18:46.216Z,15.90
2022-10-14T03:21:13.386Z,15.90
2022-10-14T03:23:40.541Z,15.80
2022-10-14T03:26:11.773Z,15.80
2022-10-14T03:28:40.623Z,15.80
2022-10-14T03:31:07.507Z,15.80
2022-10-14T03:33:34.733Z,15.80
2022-10-14T03:36:01.689Z,15.90
2022-10-14T03:38:28.491Z,15.80
2022-10-14T03:40:55.456Z,15.70
2022-10-14T03:43:22.423Z,15.80
2022-10-14T03:45:49.739Z,15.80
2022-10-14T03:48:16.497Z,15.80
2022-10-14T03:50:43.263Z,15.90
2022-10-14T03:53:10.007Z,15.90
2022-10-14T03:55:37.269Z,15.80
2022-10-14T03:58:04.195Z,15.80
2022-10-14T04:00:31.254Z,15.80
2022-10-14T04:02:58.023Z,15.80
2022-10-14T04:05:24.980Z,15.90
2022-10-14T04:07:52.110Z,15.90
2022-10-14T04:10:18.950Z,16.00
2022-10-14T04:12:45.790Z,16.00
2022-10-14T04:15:12.780Z,16.00
2022-10-14T04:17:39.507Z,15.90
2022-10-14T04:20:06.971Z,15.90
2022-10-14T04:22:33.852Z,15.80
2022-10-14T04:25:01.207Z,15.90
2022-10-14T04:27:28.033Z,15.90
2022-10-14T04:29:55.434Z,15.90
2022-10-14T04:32:22.647Z,15.90
2022-10-14T04:34:49.884Z,15.90
2022-10-14T04:37:16.706Z,15.80
2022-10-14T04:39:43.912Z,15.80
2022-10-14T04:42:11.169Z,15.90
2022-10-14T04:44:38.000Z,15.90
2022-10-14T04:47:05.006Z,15.90
2022-10-14T04:49:31.815Z,15.80
2022-10-14T04:51:59.054Z,15.80
2022-10-14T04:54:32.459Z,15.80
2022-10-14T04:56:59.686Z,15.80
2022-10-14T04:59:26.487Z,15.70
2022-10-14T05:01:53.716Z,15.80
2022-10-14T05:04:21.017Z,16.60
2022-10-14T05:06:47.903Z,16.50
2022-10-14T05:09:14.693Z,16.40
2022-10-14T05:11:41.613Z,16.30
2022-10-14T05:14:08.440Z,16.20
2022-10-14T05:16:35.343Z,16.20
2022-10-14T05:19:02.098Z,16.20
2022-10-14T05:21:28.893Z,16.10
2022-10-14T05:23:55.806Z,16.00
2022-10-14T05:26:22.598Z,16.00
2022-10-14T05:28:52.386Z,16.00
2022-10-14T05:31:19.231Z,16.00
2022-10-14T05:33:46.086Z,16.10
2022-10-14T05:36:13.281Z,16.00
2022-10-14T05:38:40.094Z,16.10
2022-10-14T05:41:07.103Z,16.00
2022-10-14T05:43:34.344Z,16.00
2022-10-14T05:46:01.578Z,16.20
2022-10-14T05:48:28.612Z,16.20
2022-10-14T05:50:55.446Z,16.10
2022-10-14T05:53:22.618Z,16.20
2022-10-14T05:55:49.334Z,16.20
2022-10-14T05:58:16.164Z,16.20
2022-10-14T06:00:42.920Z,16.20
2022-10-14T06:03:13.077Z,16.20
2022-10-14T06:05:40.464Z,16.20
2022-10-14T06:08:07.250Z,16.20
2022-10-14T06:10:35.564Z,16.30
2022-10-14T06:13:02.767Z,16.30
2022-10-14T06:15:29.562Z,16.30
2022-10-14T06:17:56.400Z,16.30
2022-10-14T06:20:23.417Z,16.30
2022-10-14T06:22:50.173Z,16.40
2022-10-14T06:25:17.471Z,16.40
2022-10-14T06:27:44.414Z,16.40
2022-10-14T06:30:12.132Z,16.40
2022-10-14T06:32:39.356Z,16.40
2022-10-14T06:35:07.009Z,16.40
2022-10-14T06:37:33.889Z,16.40
2022-10-14T06:40:01.054Z,16.40
2022-10-14T06:42:27.958Z,16.40
2022-10-14T06:44:54.749Z,16.40
2022-10-14T06:47:21.960Z,16.40
2022-10-14T06:49:48.718Z,16.40
2022-10-14T06:52:15.470Z,16.40
2022-10-14T06:54:47.374Z,16.40
2022-10-14T06:57:15.320Z,16.40
2022-10-14T06:59:42.189Z,16.50
2022-10-14T07:02:10.262Z,16.50
2022-10-14T07:04:37.043Z,16.50
2022-10-14T07:07:04.114Z,16.60
2022-10-14T07:09:31.378Z,16.70
2022-10-14T07:11:58.514Z,16.70
2022-10-14T07:14:25.736Z,16.80
2022-10-14T07:16:53.289Z,16.90
2022-10-14T07:19:20.094Z,16.80
2022-10-14T07:21:46.931Z,16.90
2022-10-14T07:24:14.338Z,17.00
2022-10-14T07:26:41.176Z,17.00
2022-10-14T07:29:08.656Z,17.10
2022-10-14T07:31:35.535Z,17.00
2022-10-14T07:34:02.838Z,17.00
2022-10-14T07:36:29.971Z,17.10
2022-10-14T07:38:57.190Z,17.10
2022-10-14T07:41:24.952Z,17.10
2022-10-14T07:44:05.638Z,17.10
2022-10-14T07:46:34.912Z,17.10
2022-10-14T07:49:12.989Z,17.10
2022-10-14T07:51:40.880Z,17.10
2022-10-14T07:54:12.555Z,17.10
2022-10-14T07:56:40.788Z,17.20
2022-10-14T07:59:08.062Z,17.20
2022-10-14T08:01:35.655Z,17.30
2022-10-14T08:04:02.437Z,17.40
2022-10-14T08:06:29.301Z,17.40
2022-10-14T08:08:56.239Z,17.40
2022-10-14T08:11:26.317Z,17.30
2022-10-14T08:13:54.111Z,17.30
2022-10-14T08:16:23.136Z,17.30
2022-10-14T08:18:50.694Z,17.40
2022-10-14T08:21:18.954Z,17.50
2022-10-14T08:23:45.942Z,17.60
2022-10-14T08:26:21.802Z,17.70
2022-10-14T08:28:49.668Z,17.70
2022-10-14T08:31:17.372Z,17.70
2022-10-14T08:33:44.472Z,17.80
2022-10-14T08:36:11.510Z,17.80
2022-10-14T08:38:38.496Z,17.90
2022-10-14T08:41:23.272Z,18.00
2022-10-14T08:44:17.438Z,18.20
2022-10-14T08:46:52.581Z,18.30
2022-10-14T08:49:42.791Z,18.20
2022-10-14T08:52:18.136Z,18.20
2022-10-14T08:54:49.646Z,18.20
2022-10-14T08:57:33.333Z,18.10
2022-10-14T09:00:00.599Z,18.20
2022-10-14T09:02:39.739Z,18.20
2022-10-14T09:05:06.965Z,18.40
2022-10-14T09:07:36.232Z,18.60
2022-10-14T09:10:08.349Z,18.80
2022-10-14T09:12:36.530Z,18.80
2022-10-14T09:15:09.025Z,18.70
2022-10-14T09:17:50.752Z,18.80
2022-10-14T09:20:21.995Z,18.90
2022-10-14T09:23:19.303Z,19.00
2022-10-14T09:26:14.630Z,19.20
2022-10-14T09:28:50.233Z,19.40
2022-10-14T09:31:17.194Z,19.60
2022-10-14T09:33:45.166Z,19.60
2022-10-14T09:36:20.806Z,19.80
2022-10-14T09:38:52.978Z,19.90
2022-10-14T09:41:28.086Z,20.10
2022-10-14T09:44:27.161Z,20.30
2022-10-14T09:47:02.395Z,19.90
2022-10-14T09:49:45.195Z,19.60
2022-10-14T09:52:25.966Z,20.60
2022-10-14T09:54:59.185Z,20.70
2022-10-14T09:57:27.070Z,20.60
2022-10-14T09:59:58.770Z,20.40
2022-10-14T10:02:38.374Z,20.30
2022-10-14T10:05:23.778Z,20.40
2022-10-14T10:08:20.025Z,20.50
2022-10-14T10:11:06.901Z,20.50
2022-10-14T10:13:40.504Z,20.70
2022-10-14T10:16:22.026Z,21.10
2022-10-14T10:18:50.981Z,21.20
2022-10-14T10:21:24.662Z,21.60
2022-10-14T10:24:01.573Z,22.10
2022-10-14T10:26:34.022Z,22.60
2022-10-14T10:29:04.208Z,23.20
2022-10-14T10:34:07.975Z,24.60
2022-10-14T10:36:41.102Z,25.10
2022-10-14T10:39:31.598Z,25.30
2022-10-14T10:42:27.906Z,25.50
2022-10-14T10:45:16.099Z,25.60
2022-10-14T10:48:03.728Z,25.50
2022-10-14T10:50:57.658Z,25.70
2022-10-14T10:53:41.497Z,26.20
2022-10-14T10:56:18.422Z,27.50
2022-10-14T10:58:51.412Z,28.20
2022-10-14T11:01:39.824Z,29.00
2022-10-14T11:04:27.981Z,29.90
2022-10-14T11:07:42.550Z,30.50
2022-10-14T11:10:48.044Z,31.30
2022-10-14T11:13:23.819Z,32.50
2022-10-14T11:16:21.974Z,32.80
2022-10-14T11:18:56.968Z,32.90
2022-10-14T11:22:13.888Z,32.40
2022-10-14T11:24:46.554Z,32.80
2022-10-14T11:27:37.358Z,33.40
2022-10-14T11:30:18.545Z,33.80
2022-10-14T11:33:16.307Z,34.70
2022-10-14T11:36:15.852Z,35.10
2022-10-14T11:39:03.149Z,35.20
2022-10-14T11:41:35.694Z,35.10
2022-10-14T11:44:38.092Z,34.90
2022-10-14T11:47:12.649Z,35.30
2022-10-14T11:49:48.884Z,35.40
2022-10-14T11:52:38.161Z,34.90
2022-10-14T11:55:19.036Z,35.40
2022-10-14T11:57:50.001Z,35.50
2022-10-14T12:00:39.659Z,35.60
2022-10-14T12:03:51.437Z,35.70
2022-10-14T12:06:39.655Z,35.50
2022-10-14T12:09:11.417Z,34.60
2022-10-14T12:11:46.825Z,34.60
2022-10-14T12:14:35.904Z,34.80
2022-10-14T12:17:30.523Z,35.40
2022-10-14T12:20:03.076Z,35.50
2022-10-14T12:22:32.217Z,35.70
2022-10-14T12:25:07.742Z,35.90
2022-10-14T12:30:34.031Z,36.10
2022-10-14T12:33:12.496Z,36.40
2022-10-14T12:35:51.904Z,36.80
2022-10-14T12:38:20.265Z,37.20
2022-10-14T12:40:50.619Z,37.20
2022-10-14T12:43:29.661Z,36.90
2022-10-14T12:46:11.977Z,36.30
2022-10-14T12:48:46.585Z,34.90
2022-10-14T12:51:21.554Z,35.00
2022-10-14T12:54:04.994Z,34.90
2022-10-14T12:56:33.721Z,33.70
2022-10-14T12:59:03.697Z,32.40
2022-10-14T13:01:35.241Z,31.20
2022-10-14T13:04:19.954Z,30.60
2022-10-14T13:07:35.414Z,31.10
2022-10-14T13:10:44.940Z,32.60
2022-10-14T13:13:38.463Z,34.00
2022-10-14T13:16:10.219Z,35.10
2022-10-14T13:18:43.508Z,36.20
2022-10-14T13:21:26.015Z,36.50
2022-10-14T13:23:55.194Z,37.10
2022-10-14T13:26:36.545Z,36.80
2022-10-14T13:29:34.209Z,36.50
2022-10-14T13:32:30.857Z,36.60
2022-10-14T13:35:20.117Z,37.00
2022-10-14T13:37:57.266Z,36.10
2022-10-14T13:40:35.138Z,34.50
2022-10-14T13:43:13.814Z,33.50
2022-10-14T13:45:53.187Z,33.40
2022-10-14T13:48:43.097Z,33.60
2022-10-14T13:51:31.709Z,34.00
2022-10-14T13:54:26.838Z,34.40
2022-10-14T14:02:39.243Z,35.30
2022-10-14T14:05:07.109Z,35.40
2022-10-14T14:08:14.151Z,35.50
2022-10-14T14:10:25.299Z,35.80
2022-10-14T14:12:52.641Z,35.20
2022-10-14T14:15:28.951Z,35.10
2022-10-14T14:17:55.773Z,35.20
2022-10-14T14:20:25.696Z,35.30
2022-10-14T14:22:52.480Z,35.00
2022-10-14T14:25:34.499Z,35.10
2022-10-14T14:28:05.695Z,34.90
2022-10-14T14:30:35.515Z,34.90
2022-10-14T14:33:06.752Z,34.90
2022-10-14T14:35:33.904Z,34.80
2022-10-14T14:38:00.860Z,34.70
2022-10-14T14:40:37.081Z,34.40
2022-10-14T14:43:05.512Z,34.40
2022-10-14T14:45:40.768Z,33.70
2022-10-14T14:48:08.344Z,32.80
2022-10-14T14:50:43.319Z,32.30
2022-10-14T14:53:29.559Z,32.40
2022-10-14T14:55:56.889Z,32.50
2022-10-14T14:58:26.807Z,32.40
2022-10-14T15:00:55.264Z,32.20
2022-10-14T15:03:27.271Z,31.90
2022-10-14T15:06:04.715Z,31.30
2022-10-14T15:08:41.442Z,31.10
2022-10-14T15:11:09.198Z,31.00
2022-10-14T15:13:39.518Z,30.70
2022-10-14T15:16:07.413Z,30.50
2022-10-14T15:18:37.613Z,30.20
2022-10-14T15:21:20.515Z,30.30
2022-10-14T15:23:50.594Z,30.10
2022-10-14T15:26:23.581Z,29.90
2022-10-14T15:29:16.386Z,29.10
2022-10-14T15:31:59.806Z,28.50
2022-10-14T15:34:26.709Z,28.00
2022-10-14T15:36:54.365Z,27.70
2022-10-14T15:39:21.801Z,27.30
2022-10-14T15:41:49.229Z,27.00
2022-10-14T15:44:16.241Z,26.60
2022-10-14T15:47:03.203Z,26.10
2022-10-14T15:49:42.208Z,25.50
2022-10-14T15:52:14.727Z,24.80
2022-10-14T15:54:41.922Z,24.30
2022-10-14T15:57:11.232Z,23.80
2022-10-14T15:59:41.078Z,23.10
2022-10-14T16:02:23.136Z,22.70
2022-10-14T16:05:18.654Z,22.30
2022-10-14T16:07:41.259Z,21.90
2022-10-14T16:10:11.724Z,21.50
2022-10-14T16:12:38.640Z,21.20
2022-10-14T16:15:18.990Z,20.90
2022-10-14T16:17:47.604Z,20.60
2022-10-14T16:20:17.098Z,20.60
2022-10-14T16:22:44.258Z,20.40
2022-10-14T16:25:39.901Z,20.20
2022-10-14T16:28:10.113Z,20.00
2022-10-14T16:30:41.283Z,19.90
2022-10-14T16:35:36.640Z,19.50
2022-10-14T16:38:03.447Z,19.40
2022-10-14T16:40:35.720Z,19.30
2022-10-14T16:43:03.820Z,19.20
2022-10-14T16:45:31.017Z,19.00
2022-10-14T16:47:57.854Z,18.80
2022-10-14T16:50:25.248Z,18.60
2022-10-14T16:53:10.980Z,18.40
2022-10-14T16:55:39.356Z,18.30
2022-10-14T16:58:06.541Z,18.30
2022-10-14T17:00:33.473Z,18.30
2022-10-14T17:03:02.079Z,18.10
2022-10-14T17:05:29.329Z,18.00
2022-10-14T17:07:56.168Z,18.00
2022-10-14T17:10:23.372Z,17.90
2022-10-14T17:12:50.135Z,17.90
2022-10-14T17:15:17.002Z,17.80
2022-10-14T17:17:44.132Z,17.70
2022-10-14T17:20:11.612Z,17.70
2022-10-14T17:22:38.482Z,17.60
2022-10-14T17:25:08.379Z,17.50
2022-10-14T17:27:35.177Z,17.50
2022-10-14T17:30:02.502Z,17.40
2022-10-14T17:32:29.351Z,17.30
2022-10-14T17:34:56.270Z,17.30
2022-10-14T17:37:23.082Z,17.20
2022-10-14T17:39:50.294Z,17.20
2022-10-14T17:42:17.181Z,17.10
2022-10-14T17:44:44.130Z,17.00
2022-10-14T17:47:11.227Z,17.00
2022-10-14T17:49:38.024Z,16.90
2022-10-14T17:52:06.265Z,16.90
2022-10-14T17:54:33.547Z,16.80
2022-10-14T17:57:00.419Z,16.70
2022-10-14T17:59:27.492Z,16.70
2022-10-14T18:02:02.750Z,16.80
2022-10-14T18:04:31.590Z,16.70
2022-10-14T18:06:59.056Z,16.60
2022-10-14T18:09:28.126Z,16.60
2022-10-14T18:12:10.643Z,16.60
2022-10-14T18:14:43.564Z,16.60
2022-10-14T18:17:12.324Z,16.50
2022-10-14T18:19:46.031Z,16.40
2022-10-14T18:22:18.439Z,16.30
2022-10-14T18:24:45.391Z,16.30
2022-10-14T18:27:27.296Z,16.20
2022-10-14T18:29:54.570Z,17.20
2022-10-14T18:32:21.732Z,16.20
2022-10-14T18:34:48.770Z,16.20
2022-10-14T18:37:18.772Z,16.10
2022-10-14T18:39:45.894Z,16.00
2022-10-14T18:42:14.040Z,16.00
2022-10-14T18:44:42.635Z,16.00
2022-10-14T18:47:09.658Z,15.90
2022-10-14T18:49:39.919Z,15.90
2022-10-14T18:52:11.449Z,15.90
2022-10-14T18:54:38.367Z,15.80
2022-10-14T18:57:05.144Z,15.80
2022-10-14T18:59:31.955Z,16.00
2022-10-14T19:01:59.220Z,16.00
2022-10-14T19:04:29.257Z,15.90
2022-10-14T19:06:56.700Z,15.80
2022-10-14T19:09:28.979Z,15.80
2022-10-14T19:11:58.961Z,15.70
2022-10-14T19:14:26.355Z,15.60
2022-10-14T19:16:53.531Z,15.60
2022-10-14T19:19:20.792Z,15.50
2022-10-14T19:21:54.175Z,15.30
2022-10-14T19:24:21.186Z,15.30
2022-10-14T19:26:48.146Z,15.30
2022-10-14T19:29:15.974Z,15.30
2022-10-14T19:31:46.575Z,15.20
2022-10-14T19:34:15.480Z,15.20
2022-10-14T19:36:43.369Z,15.20
2022-10-14T19:39:13.456Z,15.10
2022-10-14T19:41:44.342Z,15.10
2022-10-14T19:44:12.946Z,15.00
2022-10-14T19:46:40.654Z,15.00
2022-10-14T19:49:07.782Z,15.10
2022-10-14T19:51:35.494Z,15.00
2022-10-14T19:54:03.047Z,15.00
2022-10-14T19:56:30.379Z,15.60
2022-10-14T19:58:59.013Z,15.70
2022-10-14T20:01:28.427Z,15.50
2022-10-14T20:03:56.207Z,15.50
2022-10-14T20:06:24.158Z,15.40
2022-10-14T20:08:51.423Z,15.20
2022-10-14T20:11:19.890Z,15.10
2022-10-14T20:13:47.028Z,15.10
2022-10-14T20:16:14.434Z,15.00
2022-10-14T20:18:41.780Z,15.00
2022-10-14T20:21:12.247Z,14.90
2022-10-14T20:23:39.566Z,14.80
2022-10-14T20:26:13.583Z,14.80
2022-10-14T20:28:41.687Z,14.80
2022-10-14T20:31:12.037Z,14.70
2022-10-14T20:33:39.228Z,14.70
2022-10-14T20:36:27.518Z,14.60
2022-10-14T20:38:54.495Z,14.50
2022-10-14T20:41:26.385Z,14.40
2022-10-14T20:43:54.855Z,14.30
2022-10-14T20:46:22.818Z,14.30
2022-10-14T20:48:56.963Z,14.30
2022-10-14T20:51:24.382Z,14.20
2022-10-14T20:54:00.537Z,14.10
2022-10-14T20:56:31.622Z,14.10
2022-10-14T20:59:00.503Z,14.00
2022-10-14T21:01:29.420Z,14.00
2022-10-14T21:03:56.898Z,14.10
2022-10-14T21:06:25.257Z,14.10
2022-10-14T21:08:52.628Z,15.00
2022-10-14T21:11:22.173Z,14.10
2022-10-14T21:13:51.931Z,14.00
2022-10-14T21:16:34.017Z,13.90
2022-10-14T21:19:06.622Z,13.90
2022-10-14T21:21:53.029Z,13.60
2022-10-14T21:24:20.249Z,12.20
2022-10-14T21:26:50.281Z,13.70
2022-10-14T21:29:17.978Z,13.70
2022-10-14T21:31:44.970Z,13.60
2022-10-14T21:34:12.823Z,13.60
2022-10-14T21:36:41.043Z,13.60
2022-10-14T21:39:14.186Z,13.60
2022-10-14T21:41:42.077Z,13.70
2022-10-14T21:44:09.490Z,13.60
2022-10-14T21:46:36.901Z,13.60
2022-10-14T21:49:03.809Z,13.50
2022-10-14T21:51:31.616Z,13.50
2022-10-14T21:53:59.258Z,13.60
2022-10-14T21:56:27.306Z,13.60
2022-10-14T21:58:54.722Z,13.60
2022-10-14T22:01:27.503Z,13.70
2022-10-14T22:03:59.052Z,13.60
2022-10-14T22:06:27.283Z,13.60
2022-10-14T22:08:56.432Z,13.60
2022-10-14T22:11:24.935Z,13.60
2022-10-14T22:13:54.283Z,13.60
2022-10-14T22:16:21.649Z,13.50
2022-10-14T22:18:50.676Z,13.40
2022-10-14T22:21:21.736Z,13.50
2022-10-14T22:23:49.617Z,13.40
2022-10-14T22:26:19.184Z,13.40
2022-10-14T22:28:46.406Z,13.30
2022-10-14T22:31:17.109Z,13.30
2022-10-14T22:33:44.718Z,13.20
2022-10-14T22:36:16.135Z,13.10
2022-10-14T22:38:51.028Z,13.00
2022-10-14T22:41:18.707Z,13.00
2022-10-14T22:43:50.364Z,12.90
2022-10-14T22:46:22.265Z,12.90
2022-10-14T22:48:50.336Z,13.00
2022-10-14T22:51:20.024Z,13.00
2022-10-14T22:53:47.336Z,13.00
2022-10-14T22:56:18.209Z,13.00
2022-10-14T22:58:45.384Z,13.00
2022-10-14T23:01:15.187Z,13.00
2022-10-14T23:03:43.012Z,12.90
2022-10-14T23:06:12.326Z,12.90
2022-10-14T23:08:48.340Z,12.90
2022-10-14T23:11:20.777Z,12.90
2022-10-14T23:13:48.318Z,12.90
2022-10-14T23:16:18.309Z,12.90
2022-10-14T23:18:45.915Z,12.80
2022-10-14T23:21:18.743Z,12.80
2022-10-14T23:23:47.387Z,12.80
2022-10-14T23:26:20.281Z,12.80
2022-10-14T23:28:58.402Z,12.70
2022-10-14T23:31:38.161Z,12.80
2022-10-14T23:34:10.331Z,12.70
2022-10-14T23:36:37.930Z,12.60
2022-10-14T23:39:05.012Z,12.60
2022-10-14T23:41:34.890Z,12.60
2022-10-14T23:44:01.867Z,12.60
2022-10-14T23:46:28.654Z,12.50
2022-10-14T23:49:07.243Z,12.50
2022-10-14T23:51:43.019Z,12.40
2022-10-14T23:54:09.807Z,12.30
2022-10-14T23:56:36.707Z,12.30
2022-10-14T23:59:03.671Z,12.30
